.
WxDataArchive / Data Records for 2007-01-20
2007-01-19 January 2007 2007-01-21

Data Records for Saturday, 20 January 2007

Time	Temp	Chill	HIndex	Humid	Dewpt	 Wind 	HiWind	WindDir	Rain 	Barom 
-----	----	-----	------	-----	-----	------	------	-------	-----	----- 
00:00	22.4	22.4	22.4	71	14.4	0	1	270	0.00	30.232 
00:05	22.2	22.2	22.2	72	14.6	0	1	270	0.00	30.233 
00:10	22.1	22.1	22.1	72	14.5	0	1	270	0.00	30.233 
00:15	21.9	21.9	21.9	73	14.6	0	1	270	0.00	30.233 
00:20	21.8	21.8	21.8	73	14.5	0	1	270	0.00	30.233 
00:25	21.8	21.8	21.8	73	14.5	0	1	270	0.00	30.233 
00:30	21.6	21.6	21.6	73	14.3	0	1	270	0.00	30.236 
00:35	21.6	21.6	21.6	73	14.3	0	1	270	0.00	30.238 
00:40	21.6	21.6	21.6	73	14.3	0	1	270	0.00	30.242 
00:45	21.6	21.6	21.6	73	14.3	0	1	270	0.00	30.241 
00:50	21.4	21.4	21.4	74	14.4	0	1	270	0.00	30.243 
00:55	21.4	21.4	21.4	74	14.4	0	0	---	0.00	30.242 
01:00	21.4	21.4	21.4	74	14.4	0	1	270	0.00	30.241 
01:05	21.3	21.3	21.3	74	14.3	0	0	---	0.00	30.240 
01:10	21.1	21.1	21.1	74	14.1	0	1	270	0.00	30.243 
01:15	21.0	21.0	21.0	74	14.0	0	1	270	0.00	30.240 
01:20	20.8	20.8	20.8	75	14.1	0	1	270	0.00	30.241 
01:25	20.8	20.8	20.8	75	14.1	0	0	---	0.00	30.247 
01:30	20.6	20.6	20.6	75	14.0	0	0	---	0.00	30.245 
01:35	20.5	20.5	20.5	76	14.2	0	1	270	0.00	30.247 
01:40	20.5	20.5	20.5	76	14.2	0	0	---	0.00	30.246 
01:45	20.5	20.5	20.5	76	14.2	0	1	270	0.00	30.245 
01:50	20.5	20.5	20.5	76	14.2	0	1	270	0.00	30.249 
01:55	20.5	20.5	20.5	76	14.2	0	0	---	0.00	30.249 
02:00	20.5	20.5	20.5	76	14.2	0	0	---	0.00	30.250 
02:05	20.3	20.3	20.3	77	14.3	0	1	270	0.00	30.249 
02:10	20.3	20.3	20.3	77	14.3	0	0	---	0.00	30.251 
02:15	20.3	20.3	20.3	77	14.3	0	1	270	0.00	30.253 
02:20	20.3	20.3	20.3	77	14.3	0	0	---	0.00	30.253 
02:25	20.3	20.3	20.3	77	14.3	0	0	---	0.00	30.256 
02:30	20.2	20.2	20.2	77	14.2	0	0	---	0.00	30.262 
02:35	20.2	20.2	20.2	77	14.2	0	0	---	0.00	30.263 
02:40	20.2	20.2	20.2	77	14.2	0	0	---	0.00	30.262 
02:45	20.2	20.2	20.2	78	14.5	0	1	270	0.00	30.264 
02:50	20.5	20.5	20.5	78	14.8	0	1	270	0.00	30.265 
02:55	20.8	20.8	20.8	78	15.0	0	1	270	0.00	30.264 
03:00	21.1	21.1	21.1	78	15.3	0	1	270	0.00	30.263 
03:05	21.4	21.4	21.4	77	15.3	0	1	270	0.00	30.264 
03:10	21.6	21.6	21.6	77	15.5	0	1	270	0.00	30.262 
03:15	21.8	21.8	21.8	76	15.4	0	1	270	0.00	30.262 
03:20	21.6	21.6	21.6	76	15.2	0	1	270	0.00	30.261 
03:25	21.6	21.6	21.6	76	15.2	0	1	270	0.00	30.257 
03:30	21.4	21.4	21.4	76	15.0	0	2	248	0.00	30.262 
03:35	21.3	21.3	21.3	76	14.9	0	2	248	0.00	30.264 
03:40	21.3	21.3	21.3	77	15.2	0	1	248	0.00	30.264 
03:45	21.1	21.1	21.1	77	15.0	0	1	248	0.00	30.264 
03:50	21.3	21.3	21.3	77	15.2	0	1	248	0.00	30.273 
03:55	21.3	21.3	21.3	77	15.2	0	2	248	0.00	30.274 
04:00	21.4	21.4	21.4	78	15.6	1	3	270	0.00	30.276 
04:05	21.4	21.4	21.4	78	15.6	1	4	248	0.00	30.278 
04:10	21.4	21.4	21.4	77	15.3	0	2	248	0.00	30.282 
04:15	21.4	21.4	21.4	77	15.3	0	1	248	0.00	30.280 
04:20	21.3	21.3	21.3	77	15.2	0	2	248	0.00	30.284 
04:25	21.3	21.3	21.3	77	15.2	0	2	248	0.00	30.281 
04:30	21.1	21.1	21.1	77	15.0	0	1	248	0.00	30.282 
04:35	21.0	21.0	21.0	77	14.9	0	1	248	0.00	30.284 
04:40	20.8	20.8	20.8	77	14.7	0	0	---	0.00	30.280 
04:45	20.5	20.5	20.5	78	14.8	0	0	---	0.00	30.281 
04:50	20.3	20.3	20.3	78	14.6	0	1	248	0.00	30.285 
04:55	20.2	20.2	20.2	78	14.5	0	2	248	0.00	30.283 
05:00	19.9	19.9	19.9	79	14.5	0	1	248	0.00	30.284 
05:05	19.7	19.7	19.7	79	14.3	0	0	---	0.00	30.287 
05:10	19.5	19.5	19.5	79	14.1	0	1	248	0.00	30.283 
05:15	19.4	19.4	19.4	80	14.3	0	1	248	0.00	30.287 
05:20	19.2	19.2	19.2	80	14.1	0	2	248	0.00	30.296 
05:25	19.1	19.1	19.1	80	14.0	0	1	248	0.00	30.294 
05:30	18.9	18.9	18.9	81	14.1	0	1	248	0.00	30.296 
05:35	18.9	18.9	18.9	81	14.1	0	1	248	0.00	30.289 
05:40	18.8	18.8	18.8	81	14.0	0	0	---	0.00	30.292 
05:45	18.4	18.4	18.4	81	13.6	0	0	---	0.00	30.286 
05:50	18.3	18.3	18.3	81	13.5	0	0	---	0.00	30.287 
05:55	18.0	18.0	18.0	81	13.2	0	0	---	0.00	30.288 
06:00	17.8	17.8	17.8	82	13.3	0	0	---	0.00	30.287 
06:05	17.7	17.7	17.7	83	13.4	0	0	---	0.00	30.292 
06:10	17.5	17.5	17.5	83	13.2	0	0	---	0.00	30.301 
06:15	17.5	17.5	17.5	83	13.2	0	0	---	0.00	30.301 
06:20	17.3	17.3	17.3	84	13.3	0	1	248	0.00	30.302 
06:25	17.3	17.3	17.3	84	13.3	0	2	248	0.00	30.305 
06:30	17.3	17.3	17.3	84	13.3	0	1	248	0.00	30.312 
06:35	17.3	17.3	17.3	84	13.3	0	0	---	0.00	30.315 
06:40	17.3	17.3	17.3	84	13.3	0	1	248	0.00	30.317 
06:45	17.3	17.3	17.3	84	13.3	0	0	---	0.00	30.322 
06:50	17.2	17.2	17.2	84	13.2	0	1	248	0.00	30.323 
06:55	17.2	17.2	17.2	84	13.2	0	1	248	0.00	30.329 
07:00	17.2	17.2	17.2	84	13.2	0	0	---	0.00	30.328 
07:05	17.0	17.0	17.0	84	13.0	0	1	248	0.00	30.332 
07:10	17.0	17.0	17.0	84	13.0	0	1	248	0.00	30.335 
07:15	16.9	16.9	16.9	84	12.9	0	0	---	0.00	30.341 
07:20	16.9	16.9	16.9	84	12.9	0	1	248	0.00	30.348 
07:25	16.9	16.9	16.9	85	13.2	0	1	248	0.00	30.348 
07:30	16.9	16.9	16.9	85	13.2	0	0	---	0.00	30.348 
07:35	17.0	17.0	17.0	85	13.3	0	1	248	0.00	30.350 
07:40	17.2	17.2	17.2	85	13.5	0	1	248	0.00	30.352 
07:45	17.5	17.5	17.5	85	13.8	0	2	248	0.00	30.353 
07:50	17.8	17.8	17.8	85	14.1	1	3	248	0.00	30.362 
07:55	18.1	18.1	18.1	84	14.1	0	2	248	0.00	30.360 
08:00	18.3	18.3	18.3	84	14.3	0	2	248	0.00	30.361 
08:05	18.4	18.4	18.4	84	14.4	0	3	248	0.00	30.363 
08:10	18.6	18.6	18.6	84	14.6	0	0	---	0.00	30.359 
08:15	18.8	18.8	18.8	83	14.5	0	1	248	0.00	30.356 
08:20	18.9	18.9	18.9	83	14.6	0	1	248	0.00	30.361 
08:25	19.1	19.1	19.1	83	14.8	0	1	248	0.00	30.357 
08:30	19.2	19.2	19.2	83	14.9	0	0	---	0.00	30.357 
08:35	19.4	19.4	19.4	82	14.8	0	2	248	0.00	30.360 
08:40	19.5	19.5	19.5	82	14.9	0	2	248	0.00	30.361 
08:45	19.7	19.7	19.7	82	15.1	0	3	248	0.00	30.362 
08:50	19.9	19.9	19.9	81	15.0	0	2	248	0.00	30.363 
08:55	20.0	20.0	20.0	81	15.1	0	2	248	0.00	30.363 
09:00	20.2	20.2	20.2	81	15.3	0	2	248	0.00	30.367 
09:05	20.3	20.3	20.3	80	15.1	1	5	248	0.00	30.367 
09:10	20.5	20.5	20.5	80	15.3	0	2	248	0.00	30.369 
09:15	20.6	20.6	20.6	79	15.1	0	2	248	0.00	30.374 
09:20	20.8	20.8	20.8	79	15.3	0	3	248	0.00	30.374 
09:25	21.0	21.0	21.0	78	15.2	1	3	248	0.00	30.378 
09:30	21.1	21.1	21.1	78	15.3	1	4	248	0.00	30.381 
09:35	21.3	21.3	21.3	78	15.5	1	4	248	0.00	30.380 
09:40	21.4	21.4	21.4	78	15.6	0	2	248	0.00	30.384 
09:45	21.4	21.4	21.4	77	15.3	1	3	248	0.00	30.390 
09:50	21.6	21.6	21.6	77	15.5	0	2	248	0.00	30.391 
09:55	21.8	21.8	21.8	76	15.4	0	2	248	0.00	30.390 
10:00	21.9	21.9	21.9	77	15.8	0	2	248	0.00	30.393 
10:05	22.1	22.1	22.1	76	15.7	0	2	248	0.00	30.396 
10:10	22.2	22.2	22.2	77	16.1	0	1	248	0.00	30.395 
10:15	22.4	22.4	22.4	76	16.0	0	1	248	0.00	30.395 
10:20	22.7	22.7	22.7	76	16.3	0	1	248	0.00	30.395 
10:25	22.9	22.9	22.9	75	16.2	0	1	248	0.00	30.394 
10:30	23.0	23.0	23.0	74	16.0	0	1	248	0.00	30.396 
10:35	23.2	23.2	23.2	74	16.2	0	3	248	0.00	30.405 
10:40	23.3	23.3	23.3	73	15.9	0	2	248	0.00	30.407 
10:45	23.6	23.6	23.6	74	16.6	0	1	248	0.00	30.404 
10:50	23.9	23.9	23.9	73	16.5	0	2	248	0.00	30.407 
10:55	24.1	24.1	24.1	72	16.4	0	1	248	0.00	30.404 
11:00	24.4	24.4	24.4	71	16.4	0	1	248	0.00	30.400 
11:05	24.7	24.7	24.7	71	16.7	0	2	248	0.00	30.404 
11:10	24.8	24.8	24.8	70	16.4	0	1	248	0.00	30.399 
11:15	25.1	25.1	25.1	69	16.4	0	1	248	0.00	30.400 
11:20	25.3	25.3	25.3	68	16.2	0	0	---	0.00	30.396 
11:25	25.4	25.4	25.4	66	15.7	0	1	248	0.00	30.395 
11:30	25.7	25.7	25.7	64	15.2	0	1	248	0.00	30.394 
11:35	25.8	25.8	25.8	64	15.3	1	3	270	0.00	30.392 
11:40	26.1	26.1	26.1	63	15.3	0	2	0	0.00	30.393 
11:45	26.1	26.1	26.1	63	15.3	0	2	0	0.00	30.393 
11:50	26.1	26.1	26.1	61	14.5	0	2	0	0.00	30.396 
11:55	26.3	26.3	26.3	62	15.1	0	1	0	0.00	30.394 
12:00	26.3	26.3	26.3	62	15.1	0	2	0	0.00	30.393 
12:05	26.4	26.4	26.4	62	15.2	0	2	0	0.00	30.394 
12:10	26.4	26.4	26.4	61	14.8	0	2	315	0.00	30.393 
12:15	26.6	26.6	26.6	61	15.0	1	4	90	0.00	30.391 
12:20	26.7	26.7	26.7	63	15.8	1	3	90	0.00	30.392 
12:25	26.7	26.7	26.7	61	15.1	1	3	90	0.00	30.391 
12:30	26.6	26.6	26.6	61	15.0	0	1	90	0.00	30.388 
12:35	26.4	26.4	26.4	62	15.2	1	3	90	0.00	30.390 
12:40	26.4	26.4	26.4	62	15.2	1	4	112	0.00	30.390 
12:45	26.6	26.6	26.6	62	15.4	1	4	68	0.00	30.386 
12:50	26.6	26.6	26.6	61	15.0	1	3	90	0.00	30.384 
12:55	26.7	26.7	26.7	62	15.5	1	3	90	0.00	30.382 
13:00	26.7	26.7	26.7	62	15.5	0	2	90	0.00	30.377 
13:05	26.9	26.9	26.9	61	15.3	0	2	90	0.00	30.376 
13:10	27.2	27.2	27.2	62	15.9	1	3	90	0.00	30.373 
13:15	27.0	27.0	27.0	60	15.0	0	2	90	0.00	30.372 
13:20	27.3	27.3	27.3	61	15.7	1	2	68	0.00	30.375 
13:25	27.2	27.2	27.2	60	15.2	2	4	112	0.00	30.374 
13:30	26.9	26.9	26.9	62	15.6	1	4	112	0.00	30.371 
13:35	26.7	26.7	26.7	62	15.5	1	4	112	0.00	30.370 
13:40	26.6	26.6	26.6	61	15.0	1	3	112	0.00	30.366 
13:45	26.4	26.4	26.4	60	14.4	1	2	112	0.00	30.364 
13:50	26.6	26.6	26.6	61	15.0	0	2	112	0.00	30.360 
13:55	26.6	26.6	26.6	60	14.6	1	2	112	0.00	30.359 
14:00	26.6	26.6	26.6	62	15.4	0	1	112	0.00	30.357 
14:05	26.6	26.6	26.6	62	15.4	0	2	112	0.00	30.358 
14:10	26.6	26.6	26.6	61	15.0	0	1	112	0.00	30.357 
14:15	26.6	26.6	26.6	60	14.6	0	1	112	0.00	30.357 
14:20	26.9	26.9	26.9	60	14.9	0	1	112	0.00	30.358 
14:25	27.6	27.6	27.6	60	15.6	0	2	112	0.00	30.358 
14:30	27.9	27.9	27.9	59	15.5	1	4	248	0.00	30.360 
14:35	28.2	28.2	28.2	58	15.3	1	4	248	0.00	30.360 
14:40	28.4	28.4	28.4	60	16.3	2	4	270	0.00	30.360 
14:45	28.5	28.5	28.5	58	15.6	0	2	270	0.00	30.360 
14:50	28.2	28.2	28.2	57	14.9	0	1	270	0.00	30.361 
14:55	27.9	27.9	27.9	57	14.7	0	2	270	0.00	30.360 
15:00	27.6	27.6	27.6	58	14.8	0	2	270	0.00	30.359 
15:05	27.5	27.5	27.5	60	15.5	0	1	270	0.00	30.358 
15:10	27.3	27.3	27.3	59	14.9	0	1	270	0.00	30.353 
15:15	27.3	27.3	27.3	59	14.9	0	1	270	0.00	30.352 
15:20	27.3	27.3	27.3	60	15.3	0	0	---	0.00	30.357 
15:25	27.2	27.2	27.2	59	14.8	0	2	270	0.00	30.351 
15:30	27.2	27.2	27.2	59	14.8	0	1	270	0.00	30.356 
15:35	27.3	27.3	27.3	58	14.5	0	2	270	0.00	30.357 
15:40	27.5	27.5	27.5	59	15.1	1	2	270	0.00	30.357 
15:45	27.6	27.6	27.6	58	14.8	1	2	135	0.00	30.359 
15:50	27.8	27.8	27.8	58	15.0	0	1	135	0.00	30.362 
15:55	27.9	27.9	27.9	58	15.1	1	3	135	0.00	30.361 
16:00	27.8	27.8	27.8	59	15.4	1	4	90	0.00	30.365 
16:05	27.9	27.9	27.9	59	15.5	0	3	90	0.00	30.367 
16:10	28.1	28.1	28.1	58	15.3	1	2	112	0.00	30.373 
16:15	28.2	28.2	28.2	58	15.3	0	3	112	0.00	30.375 
16:20	28.2	28.2	28.2	59	15.7	2	4	112	0.00	30.375 
16:25	28.1	28.1	28.1	59	15.6	2	5	112	0.00	30.375 
16:30	28.2	28.2	28.2	59	15.7	1	3	112	0.00	30.368 
16:35	28.4	28.4	28.4	57	15.1	0	2	180	0.00	30.365 
16:40	28.2	28.2	28.2	58	15.3	0	2	112	0.00	30.368 
16:45	28.1	28.1	28.1	58	15.3	0	2	112	0.00	30.367 
16:50	27.8	27.8	27.8	58	15.0	0	1	112	0.00	30.369 
16:55	27.5	27.5	27.5	59	15.1	0	1	135	0.00	30.366 
17:00	27.2	27.2	27.2	60	15.2	0	1	135	0.00	30.364 
17:05	27.0	27.0	27.0	61	15.4	0	1	135	0.00	30.362 
17:10	26.7	26.7	26.7	61	15.1	1	2	112	0.00	30.360 
17:15	26.6	26.6	26.6	62	15.4	1	3	112	0.00	30.350 
17:20	26.3	26.3	26.3	62	15.1	0	2	112	0.00	30.349 
17:25	26.1	26.1	26.1	62	14.9	0	2	112	0.00	30.348 
17:30	26.0	26.0	26.0	63	15.2	0	1	112	0.00	30.346 
17:35	25.8	25.8	25.8	64	15.3	0	1	112	0.00	30.348 
17:40	25.7	25.7	25.7	64	15.2	0	1	112	0.00	30.345 
17:45	25.6	25.6	25.6	65	15.5	1	2	112	0.00	30.347 
17:50	25.4	25.4	25.4	65	15.3	0	3	112	0.00	30.354 
17:55	25.3	25.3	25.3	65	15.2	0	1	112	0.00	30.359 
18:00	25.1	25.1	25.1	66	15.4	0	1	112	0.00	30.361 
18:05	25.0	25.0	25.0	66	15.3	0	1	135	0.00	30.359 
18:10	24.8	24.8	24.8	68	15.8	0	1	135	0.00	30.353 
18:15	24.7	24.7	24.7	68	15.7	0	1	135	0.00	30.350 
18:20	24.4	24.4	24.4	69	15.7	0	0	---	0.00	30.350 
18:25	24.2	24.2	24.2	69	15.5	0	0	---	0.00	30.356 
18:30	24.1	24.1	24.1	69	15.4	0	0	---	0.00	30.358 
18:35	23.9	23.9	23.9	69	15.2	0	0	---	0.00	30.355 
18:40	23.8	23.8	23.8	70	15.5	0	1	135	0.00	30.355 
18:45	23.6	23.6	23.6	70	15.3	0	0	---	0.00	30.357 
18:50	23.5	23.5	23.5	71	15.5	0	0	---	0.00	30.360 
18:55	23.3	23.3	23.3	71	15.3	0	0	---	0.00	30.359 
19:00	23.2	23.2	23.2	72	15.5	0	0	---	0.00	30.362 
19:05	23.2	23.2	23.2	72	15.5	0	0	---	0.00	30.363 
19:10	23.0	23.0	23.0	72	15.3	0	1	135	0.00	30.363 
19:15	23.0	23.0	23.0	72	15.3	0	0	---	0.00	30.364 
19:20	23.0	23.0	23.0	72	15.3	0	0	---	0.00	30.365 
19:25	23.0	23.0	23.0	73	15.7	0	0	---	0.00	30.369 
19:30	22.9	22.9	22.9	73	15.6	0	0	---	0.00	30.370 
19:35	22.9	22.9	22.9	73	15.6	0	0	---	0.00	30.375 
19:40	22.9	22.9	22.9	73	15.6	0	0	---	0.00	30.374 
19:45	22.9	22.9	22.9	73	15.6	0	0	---	0.00	30.372 
19:50	22.7	22.7	22.7	73	15.4	0	0	---	0.00	30.376 
19:55	22.7	22.7	22.7	74	15.7	0	0	---	0.00	30.370 
20:00	22.5	22.5	22.5	74	15.5	0	0	---	0.00	30.373 
20:05	22.5	22.5	22.5	75	15.8	0	0	---	0.00	30.368 
20:10	22.5	22.5	22.5	74	15.5	0	0	---	0.00	30.367 
20:15	22.4	22.4	22.4	74	15.4	0	0	---	0.00	30.368 
20:20	22.4	22.4	22.4	75	15.7	0	0	---	0.00	30.367 
20:25	22.4	22.4	22.4	76	16.0	0	0	---	0.00	30.366 
20:30	22.4	22.4	22.4	75	15.7	0	0	---	0.00	30.366 
20:35	22.4	22.4	22.4	75	15.7	0	1	135	0.00	30.371 
20:40	22.5	22.5	22.5	75	15.8	0	1	135	0.00	30.373 
20:45	22.7	22.7	22.7	75	16.0	0	0	---	0.00	30.368 
20:50	22.7	22.7	22.7	75	16.0	0	0	---	0.00	30.367 
20:55	22.7	22.7	22.7	75	16.0	0	0	---	0.00	30.367 
21:00	22.7	22.7	22.7	75	16.0	0	1	135	0.00	30.362 
21:05	22.7	22.7	22.7	76	16.3	0	1	135	0.00	30.354 
21:10	22.7	22.7	22.7	75	16.0	0	1	135	0.00	30.355 
21:15	22.7	22.7	22.7	76	16.3	0	1	135	0.00	30.349 
21:20	22.7	22.7	22.7	75	16.0	0	1	135	0.00	30.349 
21:25	23.0	23.0	23.0	75	16.3	0	1	135	0.00	30.353 
21:30	23.0	23.0	23.0	74	16.0	0	1	135	0.00	30.357 
21:35	23.2	23.2	23.2	74	16.2	0	1	135	0.00	30.357 
21:40	23.2	23.2	23.2	74	16.2	0	1	135	0.00	30.351 
21:45	23.3	23.3	23.3	74	16.3	0	2	135	0.00	30.356 
21:50	23.5	23.5	23.5	73	16.1	1	2	135	0.00	30.359 
21:55	23.5	23.5	23.5	74	16.5	0	1	135	0.00	30.360 
22:00	23.5	23.5	23.5	74	16.5	0	1	135	0.00	30.355 
22:05	23.5	23.5	23.5	74	16.5	0	1	135	0.00	30.358 
22:10	23.5	23.5	23.5	73	16.1	0	3	135	0.00	30.354 
22:15	23.5	23.5	23.5	73	16.1	1	3	112	0.00	30.344 
22:20	23.5	23.5	23.5	73	16.1	1	4	90	0.00	30.344 
22:25	23.6	23.6	23.6	73	16.2	2	3	112	0.00	30.342 
22:30	23.6	23.6	23.6	73	16.2	1	2	112	0.00	30.344 
22:35	23.6	23.6	23.6	73	16.2	1	3	112	0.00	30.342 
22:40	23.6	23.6	23.6	73	16.2	2	5	90	0.00	30.330 
22:45	23.6	23.6	23.6	73	16.2	2	4	90	0.00	30.331 
22:50	23.8	23.8	23.8	73	16.4	1	3	112	0.00	30.329 
22:55	23.8	23.8	23.8	73	16.4	2	4	112	0.00	30.327 
23:00	23.8	23.8	23.8	73	16.4	2	4	112	0.00	30.322 
23:05	23.8	23.8	23.8	73	16.4	2	6	112	0.00	30.326 
23:10	23.8	23.8	23.8	73	16.4	2	4	112	0.00	30.328 
23:15	23.8	23.8	23.8	73	16.4	2	5	112	0.00	30.327 
23:20	23.8	23.8	23.8	73	16.4	2	5	112	0.00	30.326 
23:25	23.8	23.8	23.8	74	16.7	1	4	112	0.00	30.327 
23:30	23.8	23.8	23.8	74	16.7	1	3	112	0.00	30.329 
23:35	23.8	23.8	23.8	74	16.7	2	4	112	0.00	30.328 
23:40	23.8	23.8	23.8	74	16.7	2	3	112	0.00	30.328 
23:45	23.8	23.8	23.8	74	16.7	2	4	112	0.00	30.325 
23:50	23.8	23.8	23.8	74	16.7	1	4	90	0.00	30.324 
23:55	23.8	23.8	23.8	74	16.7	1	3	112	0.00	30.317 

CoCoRaHS
IN-AL-39
A2 Web Hosting
Creative Commons License
GoDaddy
Look for:

loaded 2017-10-19 20:19:20 • last modified 2010-11-18 10:43:29
Privacy PolicyDisclaimer
• wx.awcolley.com is powered by PmWiki v.2002016 •
• all content (unless otherwise noted) © 2017 A W Colley